EmailTwitter


Observations de surface / France / LFBD (07510)

Régions: Québec | Canada | États-Unis | Europe | France | UK | Ailleurs
Station
Affichage
Infos & localisation pour LFBD (07510) | Aide pour décoder les METARs

Observations prises le 2018-10-23 à 02H30 UTC à BORDEAUX/MERIGNA, FR (LFBD)

Température: 12.0 Celsius

Point de rosée: 10.0 Celsius

Humidité relative: 88%

Vents: Nord-nord-est à 9 km/h ou 5 noeuds.

Pression au niveau moyen de la mer: 103.00 kilopascals.

Observation METAR:

LFBD 230230Z AUTO 02005KT CAVOK 12/10 Q1030 NOSIG=